createdAt,value
2023-04-27T00:01:15.104Z,77.74
2023-04-27T00:03:42.531Z,77.74
2023-04-27T00:06:09.859Z,78.14
2023-04-27T00:08:37.687Z,78.90
2023-04-27T00:11:04.389Z,78.56
2023-04-27T00:13:30.796Z,79.33
2023-04-27T00:15:57.388Z,78.58
2023-04-27T00:18:23.838Z,78.83
2023-04-27T00:20:51.036Z,79.01
2023-04-27T00:23:17.568Z,78.14
2023-04-27T00:25:47.016Z,79.26
2023-04-27T00:28:13.841Z,78.40
2023-04-27T00:30:40.903Z,79.39
2023-04-27T00:33:09.761Z,79.15
2023-04-27T00:35:36.295Z,78.55
2023-04-27T00:38:02.954Z,79.05
2023-04-27T00:40:29.465Z,78.84
2023-04-27T00:42:55.916Z,79.76
2023-04-27T00:45:22.448Z,78.87
2023-04-27T00:47:49.715Z,79.32
2023-04-27T00:50:25.674Z,79.68
2023-04-27T00:52:52.195Z,79.88
2023-04-27T00:55:19.539Z,79.21
2023-04-27T00:57:47.146Z,79.47
2023-04-27T01:00:13.987Z,79.98
2023-04-27T01:02:41.579Z,79.93
2023-04-27T01:05:09.427Z,79.74
2023-04-27T01:07:39.894Z,79.83
2023-04-27T01:10:07.589Z,79.63
2023-04-27T01:12:35.350Z,80.22
2023-04-27T01:15:05.511Z,80.13
2023-04-27T01:17:32.845Z,79.85
2023-04-27T01:20:02.419Z,79.81
2023-04-27T01:22:28.893Z,79.80
2023-04-27T01:24:55.456Z,80.05
2023-04-27T01:27:23.764Z,80.62
2023-04-27T01:29:50.672Z,80.05
2023-04-27T01:32:17.210Z,80.10
2023-04-27T01:34:46.610Z,80.59
2023-04-27T01:37:19.826Z,81.02
2023-04-27T01:39:53.363Z,80.87
2023-04-27T01:42:24.841Z,80.20
2023-04-27T01:44:51.380Z,80.95
2023-04-27T01:47:18.200Z,80.19
2023-04-27T01:49:44.768Z,80.82
2023-04-27T01:52:11.193Z,80.34
2023-04-27T01:54:38.045Z,80.91
2023-04-27T01:57:06.121Z,81.18
2023-04-27T01:59:33.386Z,81.08
2023-04-27T02:02:00.088Z,81.30
2023-04-27T02:04:26.653Z,81.24
2023-04-27T02:06:53.268Z,81.23
2023-04-27T02:09:19.696Z,80.97
2023-04-27T02:11:46.136Z,80.93
2023-04-27T02:14:12.573Z,81.16
2023-04-27T02:16:39.175Z,81.01
2023-04-27T02:19:05.718Z,81.06
2023-04-27T02:21:32.789Z,81.59
2023-04-27T02:23:59.618Z,81.49
2023-04-27T02:26:29.381Z,81.61
2023-04-27T02:28:57.116Z,82.27
2023-04-27T02:31:24.319Z,81.95
2023-04-27T02:33:51.058Z,81.81
2023-04-27T02:36:17.627Z,81.73
2023-04-27T02:38:44.137Z,82.22
2023-04-27T02:41:10.803Z,82.67
2023-04-27T02:43:37.289Z,82.56
2023-04-27T02:46:06.474Z,82.53
2023-04-27T02:48:33.341Z,82.81
2023-04-27T02:51:02.790Z,82.78
2023-04-27T02:53:29.290Z,82.84
2023-04-27T02:55:55.867Z,82.88
2023-04-27T02:58:22.675Z,83.17
2023-04-27T03:00:54.146Z,83.33
2023-04-27T03:03:20.773Z,83.13
2023-04-27T03:05:48.756Z,83.55
2023-04-27T03:08:15.788Z,83.32
2023-04-27T03:10:42.198Z,83.44
2023-04-27T03:13:09.596Z,83.47
2023-04-27T03:15:36.108Z,83.48
2023-04-27T03:18:02.670Z,83.35
2023-04-27T03:20:29.192Z,84.00
2023-04-27T03:22:55.752Z,83.63
2023-04-27T03:25:22.301Z,83.49
2023-04-27T03:27:48.890Z,83.84
2023-04-27T03:30:15.590Z,83.58
2023-04-27T03:32:42.281Z,83.75
2023-04-27T03:35:09.968Z,84.17
2023-04-27T03:37:36.501Z,83.78
2023-04-27T03:40:07.503Z,83.80
2023-04-27T03:42:34.886Z,83.96
2023-04-27T03:45:01.579Z,83.97
2023-04-27T03:47:28.067Z,84.11
2023-04-27T03:49:54.626Z,84.02
2023-04-27T03:52:21.527Z,83.89
2023-04-27T03:54:48.506Z,84.29
2023-04-27T03:57:15.026Z,84.33
2023-04-27T03:59:41.631Z,84.12
2023-04-27T04:02:09.534Z,84.37
2023-04-27T04:04:36.910Z,84.56
2023-04-27T04:07:03.430Z,84.71
2023-04-27T04:09:29.869Z,84.59
2023-04-27T04:11:56.548Z,84.58
2023-04-27T04:14:23.907Z,84.52
2023-04-27T04:16:51.526Z,84.73
2023-04-27T04:19:21.976Z,84.48
2023-04-27T04:21:48.776Z,84.30
2023-04-27T04:24:15.975Z,84.67
2023-04-27T04:26:42.888Z,84.48
2023-04-27T04:29:10.959Z,84.51
2023-04-27T04:31:38.253Z,84.36
2023-04-27T04:34:04.877Z,84.55
2023-04-27T04:36:32.074Z,84.72
2023-04-27T04:38:58.622Z,84.78
2023-04-27T04:41:26.285Z,84.38
2023-04-27T04:43:52.863Z,84.65
2023-04-27T04:46:19.976Z,84.51
2023-04-27T04:48:46.964Z,84.31
2023-04-27T04:51:15.092Z,84.65
2023-04-27T04:53:41.748Z,84.96
2023-04-27T04:56:12.899Z,84.84
2023-04-27T04:58:39.913Z,84.92
2023-04-27T05:01:06.856Z,84.84
2023-04-27T05:03:33.587Z,84.84
2023-04-27T05:06:00.521Z,85.11
2023-04-27T05:08:26.977Z,84.98
2023-04-27T05:10:54.262Z,85.26
2023-04-27T05:13:21.663Z,84.98
2023-04-27T05:15:48.367Z,85.35
2023-04-27T05:18:14.905Z,85.33
2023-04-27T05:20:41.361Z,85.61
2023-04-27T05:23:07.806Z,85.46
2023-04-27T05:25:41.308Z,85.74
2023-04-27T05:28:08.851Z,85.48
2023-04-27T05:30:35.971Z,85.49
2023-04-27T05:33:04.063Z,85.67
2023-04-27T05:35:31.262Z,85.39
2023-04-27T05:37:58.308Z,85.76
2023-04-27T05:40:25.038Z,85.97
2023-04-27T05:42:51.865Z,86.21
2023-04-27T05:45:18.428Z,85.96
2023-04-27T05:47:45.457Z,85.66
2023-04-27T05:50:11.903Z,85.50
2023-04-27T05:52:39.287Z,85.24
2023-04-27T05:55:07.901Z,85.67
2023-04-27T05:57:34.494Z,85.23
2023-04-27T06:00:01.481Z,84.04
2023-04-27T06:02:38.948Z,84.76
2023-04-27T06:05:06.070Z,83.97
2023-04-27T06:07:32.598Z,84.54
2023-04-27T06:09:59.084Z,83.63
2023-04-27T06:12:25.518Z,83.12
2023-04-27T06:14:51.959Z,83.34
2023-04-27T06:17:18.440Z,82.05
2023-04-27T06:19:47.177Z,81.08
2023-04-27T06:22:13.617Z,81.04
2023-04-27T06:24:40.311Z,81.18
2023-04-27T06:27:06.783Z,79.03
2023-04-27T06:29:33.387Z,77.50
2023-04-27T06:32:25.520Z,76.19
2023-04-27T06:34:52.055Z,73.42
2023-04-27T06:37:18.462Z,71.99
2023-04-27T06:39:45.012Z,71.71
2023-04-27T06:42:11.660Z,69.55
2023-04-27T06:44:38.793Z,70.69
2023-04-27T06:47:05.513Z,70.63
2023-04-27T06:49:32.038Z,69.19
2023-04-27T06:51:58.456Z,68.29
2023-04-27T06:54:25.014Z,67.56
2023-04-27T06:56:51.725Z,67.78
2023-04-27T07:01:53.930Z,65.42
2023-04-27T07:04:20.672Z,65.73
2023-04-27T07:06:47.276Z,62.53
2023-04-27T07:09:26.479Z,61.83
2023-04-27T07:11:54.253Z,62.69
2023-04-27T07:14:21.047Z,63.15
2023-04-27T07:16:47.784Z,61.82
2023-04-27T07:19:14.587Z,57.75
2023-04-27T07:21:41.317Z,56.12
2023-04-27T07:24:07.999Z,53.00
2023-04-27T07:26:41.465Z,53.41
2023-04-27T07:29:22.861Z,52.98
2023-04-27T07:31:55.748Z,51.90
2023-04-27T07:34:25.423Z,51.90
2023-04-27T07:36:54.904Z,49.76
2023-04-27T07:39:23.799Z,49.56
2023-04-27T07:41:50.741Z,47.61
2023-04-27T07:44:23.043Z,48.76
2023-04-27T07:46:49.652Z,45.75
2023-04-27T07:49:16.445Z,45.81
2023-04-27T07:51:45.778Z,46.05
2023-04-27T07:54:14.024Z,46.74
2023-04-27T07:56:42.858Z,44.42
2023-04-27T07:59:09.424Z,45.90
2023-04-27T08:01:36.015Z,45.78
2023-04-27T08:04:02.652Z,45.08
2023-04-27T08:06:29.925Z,45.47
2023-04-27T08:09:00.715Z,42.63
2023-04-27T08:11:27.387Z,43.96
2023-04-27T08:13:53.849Z,42.05
2023-04-27T08:16:22.743Z,42.81
2023-04-27T08:18:49.676Z,42.90
2023-04-27T08:21:16.360Z,42.94
2023-04-27T08:23:43.355Z,42.95
2023-04-27T08:26:16.153Z,43.47
2023-04-27T08:28:42.669Z,42.31
2023-04-27T08:31:09.263Z,42.73
2023-04-27T08:33:35.738Z,41.14
2023-04-27T08:36:02.185Z,41.57
2023-04-27T08:38:28.703Z,39.88
2023-04-27T08:40:55.218Z,40.12
2023-04-27T08:43:21.757Z,39.38
2023-04-27T08:45:53.285Z,39.90
2023-04-27T08:48:20.688Z,40.12
2023-04-27T08:50:50.570Z,40.91
2023-04-27T08:53:22.158Z,37.80
2023-04-27T08:55:51.098Z,39.27
2023-04-27T08:58:17.686Z,37.75
2023-04-27T09:00:47.919Z,38.95
2023-04-27T09:03:27.231Z,40.59
2023-04-27T09:06:05.201Z,37.84
2023-04-27T09:08:45.945Z,39.93
2023-04-27T09:11:28.022Z,38.01
2023-04-27T09:13:54.580Z,39.08
2023-04-27T09:16:25.480Z,37.39
2023-04-27T09:18:52.293Z,37.84
2023-04-27T09:21:29.392Z,37.16
2023-04-27T09:23:56.730Z,36.84
2023-04-27T09:26:25.915Z,35.37
2023-04-27T09:28:58.652Z,36.48
2023-04-27T09:31:37.314Z,34.36
2023-04-27T09:34:04.002Z,33.73
2023-04-27T09:36:32.550Z,35.31
2023-04-27T09:39:05.705Z,34.71
2023-04-27T09:41:33.388Z,37.30
2023-04-27T09:44:00.741Z,33.84
2023-04-27T09:46:29.103Z,34.31
2023-04-27T09:48:56.498Z,35.03
2023-04-27T09:51:23.033Z,33.75
2023-04-27T09:53:52.837Z,32.19
2023-04-27T09:56:45.285Z,33.17
2023-04-27T09:59:37.367Z,35.27
2023-04-27T10:02:16.984Z,32.19
2023-04-27T10:05:11.779Z,32.96
2023-04-27T10:07:41.229Z,32.80
2023-04-27T10:10:17.176Z,33.06
2023-04-27T10:12:43.735Z,33.61
2023-04-27T10:15:17.363Z,33.20
2023-04-27T10:17:51.809Z,32.98
2023-04-27T10:20:29.337Z,34.04
2023-04-27T10:22:55.886Z,31.78
2023-04-27T10:25:26.792Z,32.32
2023-04-27T10:27:56.424Z,31.62
2023-04-27T10:30:24.045Z,33.52
2023-04-27T10:32:54.417Z,30.83
2023-04-27T10:35:22.192Z,31.25
2023-04-27T10:37:49.255Z,31.45
2023-04-27T10:40:19.199Z,31.67
2023-04-27T10:42:48.184Z,30.87
2023-04-27T10:45:15.108Z,32.80
2023-04-27T10:47:45.638Z,33.70
2023-04-27T10:50:14.195Z,30.67
2023-04-27T10:52:44.440Z,30.94
2023-04-27T10:55:19.179Z,31.13
2023-04-27T10:57:53.501Z,31.31
2023-04-27T11:00:26.948Z,32.11
2023-04-27T11:02:54.898Z,30.86
2023-04-27T11:05:29.761Z,30.54
2023-04-27T11:08:10.730Z,31.75
2023-04-27T11:10:50.091Z,30.12
2023-04-27T11:13:19.144Z,30.97
2023-04-27T11:15:54.708Z,30.44
2023-04-27T11:18:24.512Z,30.18
2023-04-27T11:20:53.942Z,29.90
2023-04-27T11:23:28.822Z,30.20
2023-04-27T11:25:58.494Z,30.15
2023-04-27T11:28:25.070Z,31.70
2023-04-27T11:31:02.354Z,30.21
2023-04-27T11:33:29.422Z,28.92
2023-04-27T11:35:56.715Z,30.70
2023-04-27T11:38:23.573Z,30.41
2023-04-27T11:41:01.386Z,30.84
2023-04-27T11:43:28.221Z,30.47
2023-04-27T11:45:56.272Z,30.31
2023-04-27T11:48:29.695Z,30.69
2023-04-27T11:50:59.224Z,32.23
2023-04-27T11:53:31.428Z,31.82
2023-04-27T11:56:01.167Z,31.71
2023-04-27T11:58:33.309Z,31.98
2023-04-27T12:00:59.853Z,32.63
2023-04-27T12:03:28.313Z,30.43
2023-04-27T12:05:55.050Z,32.39
2023-04-27T12:08:21.554Z,30.13
2023-04-27T12:10:48.059Z,29.94
2023-04-27T12:13:14.888Z,30.59
2023-04-27T12:15:42.469Z,31.03
2023-04-27T12:18:09.978Z,32.09
2023-04-27T12:20:36.698Z,30.74
2023-04-27T12:23:03.322Z,29.96
2023-04-27T12:25:30.330Z,31.04
2023-04-27T12:27:57.274Z,30.00
2023-04-27T12:30:24.016Z,30.50
2023-04-27T12:32:51.244Z,30.33
2023-04-27T12:35:18.185Z,30.22
2023-04-27T12:37:44.718Z,31.76
2023-04-27T12:40:11.445Z,30.82
2023-04-27T12:42:37.958Z,29.49
2023-04-27T12:45:05.016Z,31.25
2023-04-27T12:47:54.060Z,30.90
2023-04-27T12:50:22.354Z,30.25
2023-04-27T12:52:51.246Z,30.92
2023-04-27T12:55:31.318Z,31.15
2023-04-27T12:58:00.428Z,30.85
2023-04-27T13:00:27.525Z,31.51
2023-04-27T13:02:54.208Z,30.54
2023-04-27T13:05:22.090Z,29.49
2023-04-27T13:07:49.075Z,30.52
2023-04-27T13:10:16.185Z,30.44
2023-04-27T13:12:42.751Z,30.35
2023-04-27T13:15:10.106Z,30.76
2023-04-27T13:17:40.193Z,30.90
2023-04-27T13:20:10.500Z,31.26
2023-04-27T13:22:37.740Z,31.32
2023-04-27T13:25:13.263Z,31.33
2023-04-27T13:27:39.874Z,31.93
2023-04-27T13:30:08.289Z,30.54
2023-04-27T13:32:34.887Z,31.50
2023-04-27T13:35:01.313Z,31.99
2023-04-27T13:37:27.751Z,31.82
2023-04-27T13:39:54.159Z,31.58
2023-04-27T13:42:20.741Z,31.88
2023-04-27T13:44:47.251Z,32.11
2023-04-27T13:47:15.148Z,32.70
2023-04-27T13:49:41.681Z,31.47
2023-04-27T13:52:08.173Z,31.31
2023-04-27T13:54:34.682Z,33.65
2023-04-27T13:57:03.335Z,31.95
2023-04-27T13:59:30.403Z,30.32
2023-04-27T14:01:56.923Z,31.65
2023-04-27T14:04:23.441Z,31.10
2023-04-27T14:06:50.984Z,31.58
2023-04-27T14:09:18.194Z,32.13
2023-04-27T14:11:55.787Z,29.39
2023-04-27T14:14:23.639Z,31.07
2023-04-27T14:16:51.591Z,30.45
2023-04-27T14:19:20.156Z,31.48
2023-04-27T14:21:47.667Z,32.29
2023-04-27T14:24:14.293Z,30.29
2023-04-27T14:26:43.908Z,30.72
2023-04-27T14:29:11.590Z,31.19
2023-04-27T14:31:39.324Z,32.23
2023-04-27T14:34:06.419Z,31.10
2023-04-27T14:36:33.751Z,30.86
2023-04-27T14:39:01.130Z,31.07
2023-04-27T14:41:28.295Z,31.68
2023-04-27T14:43:54.938Z,30.52
2023-04-27T14:46:22.074Z,31.63
2023-04-27T14:48:49.241Z,30.99
2023-04-27T14:51:16.816Z,31.09
2023-04-27T14:53:44.006Z,30.48
2023-04-27T14:56:13.706Z,31.87
2023-04-27T14:58:41.101Z,32.83
2023-04-27T15:01:07.895Z,31.32
2023-04-27T15:03:35.714Z,32.06
2023-04-27T15:06:02.617Z,31.55
2023-04-27T15:08:33.486Z,31.87
2023-04-27T15:11:00.752Z,31.42
2023-04-27T15:13:27.875Z,32.01
2023-04-27T15:15:56.084Z,31.33
2023-04-27T15:18:24.606Z,31.17
2023-04-27T15:20:55.224Z,31.30
2023-04-27T15:23:25.118Z,32.10
2023-04-27T15:25:54.878Z,32.09
2023-04-27T15:28:21.875Z,31.36
2023-04-27T15:30:49.299Z,31.82
2023-04-27T15:33:16.675Z,31.53
2023-04-27T15:35:43.381Z,33.02
2023-04-27T15:38:13.925Z,32.76
2023-04-27T15:40:40.761Z,31.62
2023-04-27T15:43:15.862Z,31.61
2023-04-27T15:45:43.917Z,32.99
2023-04-27T15:48:14.956Z,32.70
2023-04-27T15:50:41.478Z,33.55
2023-04-27T15:53:08.042Z,33.27
2023-04-27T15:55:34.503Z,33.74
2023-04-27T15:58:01.136Z,33.12
2023-04-27T16:00:27.630Z,33.16
2023-04-27T16:02:54.682Z,33.28
2023-04-27T16:05:21.534Z,33.43
2023-04-27T16:07:47.987Z,32.91
2023-04-27T16:10:14.473Z,33.89
2023-04-27T16:12:41.014Z,34.04
2023-04-27T16:15:10.935Z,34.25
2023-04-27T16:17:38.256Z,34.25
2023-04-27T16:20:09.413Z,35.03
2023-04-27T16:22:37.386Z,35.06
2023-04-27T16:25:09.984Z,35.03
2023-04-27T16:27:37.835Z,34.55
2023-04-27T16:30:05.497Z,34.77
2023-04-27T16:32:35.006Z,35.16
2023-04-27T16:35:01.954Z,34.62
2023-04-27T16:37:28.468Z,35.04
2023-04-27T16:39:55.088Z,35.12
2023-04-27T16:42:21.718Z,34.81
2023-04-27T16:44:48.357Z,35.99
2023-04-27T16:47:14.978Z,36.05
2023-04-27T16:49:44.722Z,35.68
2023-04-27T16:52:11.903Z,37.32
2023-04-27T16:54:39.728Z,35.70
2023-04-27T16:57:07.889Z,36.82
2023-04-27T16:59:34.630Z,36.29
2023-04-27T17:02:09.509Z,36.75
2023-04-27T17:04:43.674Z,37.00
2023-04-27T17:07:10.512Z,36.54
2023-04-27T17:09:37.636Z,36.83
2023-04-27T17:12:10.756Z,36.75
2023-04-27T17:14:38.333Z,36.07
2023-04-27T17:17:06.279Z,36.13
2023-04-27T17:19:32.800Z,36.76
2023-04-27T17:21:59.934Z,36.05
2023-04-27T17:24:29.954Z,36.61
2023-04-27T17:26:56.452Z,37.40
2023-04-27T17:29:22.979Z,36.83
2023-04-27T17:31:50.716Z,37.87
2023-04-27T17:34:17.331Z,37.59
2023-04-27T17:36:43.892Z,37.49
2023-04-27T17:39:12.706Z,38.03
2023-04-27T17:41:39.591Z,38.61
2023-04-27T17:44:06.261Z,38.84
2023-04-27T17:46:33.550Z,38.69
2023-04-27T17:49:00.125Z,38.78
2023-04-27T17:51:26.917Z,38.10
2023-04-27T17:53:54.762Z,39.02
2023-04-27T17:56:21.297Z,39.17
2023-04-27T17:58:47.835Z,39.68
2023-04-27T18:01:14.341Z,39.45
2023-04-27T18:03:41.915Z,39.33
2023-04-27T18:06:09.142Z,40.45
2023-04-27T18:08:35.722Z,39.80
2023-04-27T18:11:02.300Z,40.10
2023-04-27T18:13:28.803Z,40.79
2023-04-27T18:15:55.378Z,40.14
2023-04-27T18:18:23.958Z,40.48
2023-04-27T18:20:51.674Z,40.74
2023-04-27T18:23:18.153Z,41.51
2023-04-27T18:25:44.681Z,41.84
2023-04-27T18:28:11.510Z,41.18
2023-04-27T18:30:38.748Z,41.46
2023-04-27T18:33:05.381Z,41.97
2023-04-27T18:35:32.045Z,41.61
2023-04-27T18:37:58.666Z,41.10
2023-04-27T18:40:26.074Z,41.42
2023-04-27T18:42:53.141Z,41.25
2023-04-27T18:45:19.866Z,41.57
2023-04-27T18:47:46.363Z,42.27
2023-04-27T18:50:15.776Z,42.18
2023-04-27T18:52:42.393Z,42.23
2023-04-27T18:55:09.389Z,43.45
2023-04-27T18:57:36.166Z,43.38
2023-04-27T19:00:05.809Z,42.31
2023-04-27T19:02:32.976Z,42.61
2023-04-27T19:05:11.358Z,42.95
2023-04-27T19:07:39.267Z,43.32
2023-04-27T19:10:06.684Z,43.91
2023-04-27T19:12:33.175Z,43.22
2023-04-27T19:14:59.634Z,43.34
2023-04-27T19:17:26.205Z,44.73
2023-04-27T19:19:52.826Z,46.05
2023-04-27T19:22:19.297Z,44.45
2023-04-27T19:24:45.806Z,44.51
2023-04-27T19:27:12.548Z,43.75
2023-04-27T19:29:51.023Z,44.15
2023-04-27T19:32:17.623Z,43.84
2023-04-27T19:34:44.149Z,44.06
2023-04-27T19:37:10.607Z,44.75
2023-04-27T19:39:37.317Z,44.42
2023-04-27T19:42:03.775Z,44.89
2023-04-27T19:44:31.143Z,44.90
2023-04-27T19:46:57.628Z,45.29
2023-04-27T19:49:24.340Z,45.71
2023-04-27T19:51:50.828Z,45.75
2023-04-27T19:54:19.565Z,45.39
2023-04-27T19:56:46.229Z,45.12
2023-04-27T19:59:12.997Z,45.04
2023-04-27T20:01:39.429Z,45.33
2023-04-27T20:04:06.373Z,45.30
2023-04-27T20:06:34.401Z,44.91
2023-04-27T20:09:00.927Z,44.91
2023-04-27T20:11:27.464Z,45.37
2023-04-27T20:13:53.920Z,45.79
2023-04-27T20:16:21.562Z,44.97
2023-04-27T20:18:51.772Z,45.52
2023-04-27T20:21:18.400Z,45.21
2023-04-27T20:23:47.547Z,45.12
2023-04-27T20:26:14.238Z,45.40
2023-04-27T20:28:40.833Z,45.54
2023-04-27T20:31:07.466Z,45.38
2023-04-27T20:33:34.923Z,45.80
2023-04-27T20:36:14.225Z,45.80
2023-04-27T20:38:43.529Z,45.59
2023-04-27T20:41:11.717Z,46.50
2023-04-27T20:43:40.139Z,46.31
2023-04-27T20:46:16.415Z,45.77
2023-04-27T20:48:43.002Z,46.27
2023-04-27T20:51:09.556Z,46.17
2023-04-27T20:53:37.362Z,46.43
2023-04-27T20:56:04.783Z,46.42
2023-04-27T20:58:31.348Z,46.77
2023-04-27T21:01:00.253Z,46.43
2023-04-27T21:03:27.005Z,47.01
2023-04-27T21:05:53.722Z,46.77
2023-04-27T21:08:20.190Z,46.75
2023-04-27T21:10:46.796Z,47.08
2023-04-27T21:13:31.821Z,47.39
2023-04-27T21:15:58.794Z,47.74
2023-04-27T21:18:30.262Z,47.84
2023-04-27T21:20:57.570Z,47.72
2023-04-27T21:23:24.113Z,48.19
2023-04-27T21:25:50.679Z,48.23
2023-04-27T21:28:17.126Z,48.12
2023-04-27T21:30:43.717Z,48.63
2023-04-27T21:33:10.479Z,48.60
2023-04-27T21:35:37.009Z,48.84
2023-04-27T21:38:06.445Z,49.03
2023-04-27T21:40:32.992Z,49.11
2023-04-27T21:42:59.783Z,49.94
2023-04-27T21:45:26.816Z,49.36
2023-04-27T21:47:53.422Z,49.38
2023-04-27T21:50:20.124Z,50.02
2023-04-27T21:52:46.821Z,49.60
2023-04-27T21:55:15.234Z,49.88
2023-04-27T21:57:41.730Z,50.38
2023-04-27T22:00:13.268Z,49.85
2023-04-27T22:02:45.722Z,50.24
2023-04-27T22:05:14.169Z,50.35
2023-04-27T22:07:41.422Z,50.33
2023-04-27T22:10:08.257Z,50.22
2023-04-27T22:12:34.853Z,50.30
2023-04-27T22:15:01.392Z,51.41
2023-04-27T22:17:28.056Z,50.79
2023-04-27T22:19:54.774Z,50.75
2023-04-27T22:22:21.214Z,51.42
2023-04-27T22:24:47.675Z,50.92
2023-04-27T22:27:14.110Z,51.20
2023-04-27T22:29:40.673Z,51.06
2023-04-27T22:32:07.411Z,51.38
2023-04-27T22:34:34.162Z,51.57
2023-04-27T22:37:01.986Z,51.59
2023-04-27T22:39:30.179Z,51.94
2023-04-27T22:41:56.722Z,52.22
2023-04-27T22:44:23.206Z,52.18
2023-04-27T22:46:49.688Z,52.83
2023-04-27T22:49:17.292Z,51.95
2023-04-27T22:51:43.747Z,52.77
2023-04-27T22:54:10.463Z,52.28
2023-04-27T22:56:36.897Z,52.53
2023-04-27T22:59:03.432Z,52.60
2023-04-27T23:01:29.929Z,52.24
2023-04-27T23:03:56.519Z,52.81
2023-04-27T23:06:23.029Z,53.37
2023-04-27T23:08:49.660Z,53.06
2023-04-27T23:11:18.913Z,53.12
2023-04-27T23:13:48.095Z,53.05
2023-04-27T23:16:14.913Z,53.49
2023-04-27T23:18:41.745Z,53.08
2023-04-27T23:21:10.205Z,53.25
2023-04-27T23:23:36.714Z,53.86
2023-04-27T23:26:03.328Z,53.55
2023-04-27T23:28:29.727Z,53.35
2023-04-27T23:30:56.141Z,53.59
2023-04-27T23:33:22.676Z,53.38
2023-04-27T23:35:49.316Z,53.59
2023-04-27T23:38:16.140Z,53.93
2023-04-27T23:40:42.651Z,53.42
2023-04-27T23:43:09.142Z,53.85
2023-04-27T23:45:35.594Z,54.08
2023-04-27T23:48:02.159Z,53.60
2023-04-27T23:50:28.639Z,53.81
2023-04-27T23:52:55.206Z,53.50
2023-04-27T23:55:21.831Z,53.44
2023-04-27T23:57:51.656Z,53.88
